createdAt,value
2022-09-20T00:00:55.717Z,66.94
2022-09-20T00:06:08.855Z,66.96
2022-09-20T00:11:01.769Z,67.01
2022-09-20T00:16:01.729Z,67.10
2022-09-20T00:21:01.611Z,67.16
2022-09-20T00:26:01.596Z,67.22
2022-09-20T00:31:01.539Z,67.27
2022-09-20T00:36:01.415Z,67.29
2022-09-20T00:41:01.403Z,67.34
2022-09-20T00:46:01.362Z,67.38
2022-09-20T00:51:01.217Z,67.43
2022-09-20T00:56:01.175Z,67.45
2022-09-20T01:01:01.195Z,67.50
2022-09-20T01:06:01.016Z,67.57
2022-09-20T01:11:00.971Z,67.58
2022-09-20T01:16:00.967Z,67.62
2022-09-20T01:21:00.857Z,67.64
2022-09-20T01:26:00.853Z,67.69
2022-09-20T01:31:00.698Z,67.73
2022-09-20T01:36:00.615Z,67.77
2022-09-20T01:41:00.568Z,67.83
2022-09-20T01:46:00.557Z,67.87
2022-09-20T01:51:00.473Z,67.89
2022-09-20T01:56:00.381Z,67.90
2022-09-20T02:01:00.389Z,67.91
2022-09-20T02:06:00.200Z,67.93
2022-09-20T02:11:00.196Z,67.97
2022-09-20T02:16:00.098Z,68.02
2022-09-20T02:21:00.012Z,68.05
2022-09-20T02:25:59.996Z,68.07
2022-09-20T02:30:59.907Z,68.07
2022-09-20T02:35:59.826Z,68.05
2022-09-20T02:40:59.791Z,68.04
2022-09-20T02:45:59.779Z,68.03
2022-09-20T02:50:59.607Z,68.03
2022-09-20T02:55:59.627Z,68.05
2022-09-20T03:00:59.563Z,68.08
2022-09-20T03:05:59.426Z,68.11
2022-09-20T03:10:59.406Z,68.11
2022-09-20T03:15:59.344Z,68.15
2022-09-20T03:20:59.223Z,68.18
2022-09-20T03:25:59.170Z,68.19
2022-09-20T03:30:59.103Z,68.22
2022-09-20T03:35:59.026Z,68.23
2022-09-20T03:40:58.963Z,68.27
2022-09-20T03:45:58.949Z,68.30
2022-09-20T03:50:58.816Z,68.32
2022-09-20T03:55:58.746Z,68.35
2022-09-20T04:00:58.860Z,68.37
2022-09-20T04:05:58.602Z,68.41
2022-09-20T04:10:58.552Z,68.41
2022-09-20T04:16:08.079Z,68.40
2022-09-20T04:21:00.455Z,68.48
2022-09-20T04:26:00.394Z,68.58
2022-09-20T04:31:00.377Z,68.59
2022-09-20T04:36:00.317Z,68.63
2022-09-20T04:41:00.201Z,68.62
2022-09-20T04:46:00.193Z,68.64
2022-09-20T04:51:00.028Z,68.66
2022-09-20T04:55:59.989Z,68.70
2022-09-20T05:00:59.998Z,68.72
2022-09-20T05:05:59.836Z,68.72
2022-09-20T05:10:59.776Z,68.75
2022-09-20T05:15:59.743Z,68.77
2022-09-20T05:20:59.638Z,68.78
2022-09-20T05:25:59.624Z,68.79
2022-09-20T05:30:59.609Z,68.78
2022-09-20T05:35:59.468Z,68.83
2022-09-20T05:40:59.395Z,68.84
2022-09-20T05:45:59.373Z,68.83
2022-09-20T05:51:03.108Z,68.84
2022-09-20T05:55:59.180Z,68.79
2022-09-20T06:00:59.141Z,68.63
2022-09-20T06:05:59.048Z,68.61
2022-09-20T06:10:59.007Z,68.59
2022-09-20T06:15:58.891Z,68.45
2022-09-20T06:20:58.994Z,68.44
2022-09-20T06:25:58.746Z,68.49
2022-09-20T06:30:58.803Z,68.26
2022-09-20T06:35:59.332Z,68.00
2022-09-20T06:40:58.590Z,68.01
2022-09-20T06:45:58.526Z,68.07
2022-09-20T06:50:58.600Z,67.88
2022-09-20T06:55:58.389Z,67.93
2022-09-20T07:00:58.776Z,68.00
2022-09-20T07:05:58.216Z,68.10
2022-09-20T07:10:58.283Z,68.16
2022-09-20T07:15:58.071Z,68.04
2022-09-20T07:20:58.019Z,67.34
2022-09-20T07:25:57.949Z,67.02
2022-09-20T07:30:57.898Z,66.61
2022-09-20T07:35:57.823Z,66.08
2022-09-20T07:40:57.758Z,66.77
2022-09-20T07:45:57.755Z,64.65
2022-09-20T07:50:57.659Z,60.10
2022-09-20T07:55:57.561Z,60.79
2022-09-20T08:00:57.530Z,61.59
2022-09-20T08:05:57.498Z,58.44
2022-09-20T08:10:57.368Z,60.63
2022-09-20T08:15:57.308Z,62.26
2022-09-20T08:20:57.238Z,63.31
2022-09-20T08:25:57.303Z,64.06
2022-09-20T08:30:57.105Z,61.79
2022-09-20T08:35:57.679Z,59.35
2022-09-20T08:40:56.984Z,51.31
2022-09-20T08:45:56.897Z,47.92
2022-09-20T08:50:56.858Z,47.13
2022-09-20T08:55:56.745Z,44.69
2022-09-20T09:00:56.740Z,42.36
2022-09-20T09:05:56.589Z,44.91
2022-09-20T09:10:56.536Z,49.89
2022-09-20T09:15:56.451Z,53.96
2022-09-20T09:20:56.403Z,51.87
2022-09-20T09:25:56.354Z,53.59
2022-09-20T09:30:56.245Z,53.88
2022-09-20T09:35:56.338Z,52.84
2022-09-20T09:40:56.162Z,46.62
2022-09-20T09:45:56.209Z,49.86
2022-09-20T09:50:56.030Z,54.13
2022-09-20T09:55:55.940Z,55.57
2022-09-20T10:00:55.924Z,50.81
2022-09-20T10:05:55.797Z,50.56
2022-09-20T10:10:55.697Z,47.12
2022-09-20T10:15:55.701Z,53.41
2022-09-20T10:20:55.592Z,55.86
2022-09-20T10:25:55.521Z,57.09
2022-09-20T10:30:55.513Z,57.64
2022-09-20T10:35:55.467Z,57.32
2022-09-20T10:40:55.344Z,57.13
2022-09-20T10:50:56.198Z,56.92
2022-09-20T10:55:55.104Z,57.14
2022-09-20T11:00:55.120Z,57.38
2022-09-20T11:05:54.968Z,57.01
2022-09-20T11:10:54.920Z,56.32
2022-09-20T11:15:54.827Z,56.21
2022-09-20T11:20:54.765Z,56.46
2022-09-20T11:25:54.740Z,55.53
2022-09-20T11:30:54.635Z,54.78
2022-09-20T11:35:54.602Z,53.69
2022-09-20T11:40:54.589Z,55.32
2022-09-20T11:45:54.493Z,56.82
2022-09-20T11:50:54.399Z,57.60
2022-09-20T11:55:54.329Z,57.78
2022-09-20T12:00:54.221Z,57.86
2022-09-20T12:05:54.188Z,57.91
2022-09-20T12:10:54.104Z,57.67
2022-09-20T12:15:54.056Z,57.48
2022-09-20T12:20:53.955Z,57.03
2022-09-20T12:25:53.927Z,56.49
2022-09-20T12:30:53.853Z,56.19
2022-09-20T12:35:53.770Z,56.23
2022-09-20T12:40:53.723Z,55.72
2022-09-20T12:45:53.763Z,55.05
2022-09-20T12:50:53.566Z,54.58
2022-09-20T12:55:53.496Z,54.76
2022-09-20T13:00:53.448Z,54.77
2022-09-20T13:05:53.402Z,54.20
2022-09-20T13:10:53.288Z,54.13
2022-09-20T13:15:53.239Z,53.62
2022-09-20T13:20:53.155Z,54.06
2022-09-20T13:25:53.078Z,54.27
2022-09-20T13:30:53.060Z,54.83
2022-09-20T13:35:52.988Z,55.75
2022-09-20T13:40:52.870Z,56.59
2022-09-20T13:45:52.859Z,56.98
2022-09-20T13:50:53.818Z,57.33
2022-09-20T13:55:52.654Z,56.42
2022-09-20T14:00:53.371Z,54.82
2022-09-20T14:05:52.746Z,55.25
2022-09-20T14:10:52.507Z,55.28
2022-09-20T14:15:52.411Z,55.72
2022-09-20T14:20:52.368Z,55.76
2022-09-20T14:25:52.275Z,55.50
2022-09-20T14:30:52.199Z,55.15
2022-09-20T14:35:52.162Z,54.87
2022-09-20T14:40:52.091Z,54.05
2022-09-20T14:45:52.884Z,53.90
2022-09-20T14:50:52.026Z,53.83
2022-09-20T14:55:51.927Z,53.53
2022-09-20T15:00:51.879Z,52.86
2022-09-20T15:05:51.755Z,52.56
2022-09-20T15:10:51.676Z,52.45
2022-09-20T15:15:51.614Z,53.00
2022-09-20T15:20:51.586Z,52.70
2022-09-20T15:25:51.516Z,52.81
2022-09-20T15:30:51.424Z,53.04
2022-09-20T15:35:51.343Z,53.81
2022-09-20T15:40:51.274Z,54.57
2022-09-20T15:45:51.216Z,55.00
2022-09-20T15:50:51.188Z,55.39
2022-09-20T15:55:51.119Z,55.77
2022-09-20T16:00:51.126Z,56.06
2022-09-20T16:05:51.251Z,56.28
2022-09-20T16:10:52.297Z,56.43
2022-09-20T16:15:50.790Z,56.53
2022-09-20T16:20:50.754Z,56.75
2022-09-20T16:25:50.656Z,56.97
2022-09-20T16:30:50.674Z,57.12
2022-09-20T16:35:50.538Z,57.28
2022-09-20T16:40:50.448Z,57.43
2022-09-20T16:45:50.607Z,57.55
2022-09-20T16:50:50.289Z,57.70
2022-09-20T16:55:50.240Z,57.86
2022-09-20T17:00:50.215Z,58.10
2022-09-20T17:05:50.119Z,58.28
2022-09-20T17:10:50.029Z,58.48
2022-09-20T17:15:49.973Z,58.72
2022-09-20T17:20:49.941Z,58.97
2022-09-20T17:25:49.864Z,59.21
2022-09-20T17:30:49.808Z,59.46
2022-09-20T17:35:50.394Z,59.72
2022-09-20T17:40:52.134Z,59.93
2022-09-20T17:45:49.564Z,60.14
2022-09-20T17:51:04.351Z,60.33
2022-09-20T17:55:50.436Z,60.50
2022-09-20T18:00:49.393Z,60.65
2022-09-20T18:05:49.289Z,60.82
2022-09-20T18:10:49.209Z,60.97
2022-09-20T18:15:49.167Z,61.13
2022-09-20T18:20:49.107Z,61.26
2022-09-20T18:25:49.025Z,61.30
2022-09-20T18:30:48.973Z,61.35
2022-09-20T18:35:48.912Z,61.40
2022-09-20T18:40:48.836Z,61.49
2022-09-20T18:45:48.753Z,61.58
2022-09-20T18:50:48.688Z,61.72
2022-09-20T18:55:48.653Z,61.84
2022-09-20T19:00:48.593Z,61.96
2022-09-20T19:05:48.487Z,62.06
2022-09-20T19:10:48.421Z,62.15
2022-09-20T19:15:48.405Z,62.24
2022-09-20T19:20:48.515Z,62.37
2022-09-20T19:25:48.208Z,62.42
2022-09-20T19:30:48.176Z,62.48
2022-09-20T19:35:49.622Z,62.54
2022-09-20T19:40:48.014Z,62.62
2022-09-20T19:45:47.944Z,62.69
2022-09-20T19:50:47.902Z,62.75
2022-09-20T19:55:47.798Z,62.79
2022-09-20T20:00:47.802Z,62.86
2022-09-20T20:05:47.678Z,62.93
2022-09-20T20:10:47.590Z,63.03
2022-09-20T20:15:47.637Z,63.12
2022-09-20T20:20:47.536Z,63.24
2022-09-20T20:25:47.427Z,63.36
2022-09-20T20:30:47.346Z,63.48
2022-09-20T20:35:47.283Z,63.58
2022-09-20T20:40:47.251Z,63.64
2022-09-20T20:45:47.114Z,63.72
2022-09-20T20:50:47.087Z,63.75
2022-09-20T20:55:47.017Z,63.84
2022-09-20T21:00:46.925Z,63.96
2022-09-20T21:05:46.896Z,64.08
2022-09-20T21:10:46.813Z,64.20
2022-09-20T21:15:46.749Z,64.35
2022-09-20T21:20:46.701Z,64.45
2022-09-20T21:25:46.673Z,64.53
2022-09-20T21:30:46.572Z,64.63
2022-09-20T21:35:46.464Z,64.73
2022-09-20T21:40:46.426Z,64.79
2022-09-20T21:45:46.332Z,64.86
2022-09-20T21:50:46.248Z,64.94
2022-09-20T21:55:46.208Z,65.01
2022-09-20T22:00:46.141Z,65.12
2022-09-20T22:05:46.049Z,65.20
2022-09-20T22:10:46.017Z,65.24
2022-09-20T22:15:45.980Z,65.32
2022-09-20T22:20:45.864Z,65.39
2022-09-20T22:25:45.823Z,65.46
2022-09-20T22:30:45.767Z,65.55
2022-09-20T22:35:45.641Z,65.59
2022-09-20T22:40:45.600Z,65.68
2022-09-20T22:45:45.585Z,65.72
2022-09-20T22:50:45.440Z,65.79
2022-09-20T22:55:45.387Z,65.84
2022-09-20T23:00:45.355Z,65.89
2022-09-20T23:05:45.249Z,65.96
2022-09-20T23:10:45.203Z,66.01
2022-09-20T23:15:45.140Z,66.04
2022-09-20T23:20:45.037Z,66.08
2022-09-20T23:25:44.990Z,66.12
2022-09-20T23:30:45.000Z,66.18
2022-09-20T23:35:44.827Z,66.22
2022-09-20T23:40:44.786Z,66.26
2022-09-20T23:45:44.792Z,66.31
2022-09-20T23:50:44.690Z,66.39
2022-09-20T23:55:44.594Z,66.42
